sensor_id;sensor_type;location;lat;lon;timestamp;P1;durP1;ratioP1;P2;durP2;ratioP2
22814;SDS011;11574;51.058;13.712;2023-07-30T00:01:00;4.67;;;2.20;;
22814;SDS011;11574;51.058;13.712;2023-07-30T00:06:02;4.53;;;1.97;;
22814;SDS011;11574;51.058;13.712;2023-07-30T00:11:06;5.13;;;2.60;;
22814;SDS011;11574;51.058;13.712;2023-07-30T00:16:08;6.07;;;2.30;;
22814;SDS011;11574;51.058;13.712;2023-07-30T00:21:11;3.77;;;2.40;;
22814;SDS011;11574;51.058;13.712;2023-07-30T00:26:16;2.80;;;2.30;;
22814;SDS011;11574;51.058;13.712;2023-07-30T00:31:19;3.60;;;2.70;;
22814;SDS011;11574;51.058;13.712;2023-07-30T00:36:21;4.37;;;2.40;;
22814;SDS011;11574;51.058;13.712;2023-07-30T00:41:25;5.47;;;2.70;;
22814;SDS011;11574;51.058;13.712;2023-07-30T00:46:27;6.07;;;2.50;;
22814;SDS011;11574;51.058;13.712;2023-07-30T00:51:29;3.87;;;2.97;;
22814;SDS011;11574;51.058;13.712;2023-07-30T00:56:34;5.77;;;2.40;;
22814;SDS011;11574;51.058;13.712;2023-07-30T01:01:36;3.93;;;2.37;;
22814;SDS011;11574;51.058;13.712;2023-07-30T01:06:39;8.80;;;2.77;;
22814;SDS011;11574;51.058;13.712;2023-07-30T01:11:43;4.27;;;2.27;;
22814;SDS011;11574;51.058;13.712;2023-07-30T01:16:46;5.73;;;2.57;;
22814;SDS011;11574;51.058;13.712;2023-07-30T01:21:50;9.00;;;2.60;;
22814;SDS011;11574;51.058;13.712;2023-07-30T01:26:54;6.27;;;2.50;;
22814;SDS011;11574;51.058;13.712;2023-07-30T01:31:57;4.77;;;2.10;;
22814;SDS011;11574;51.058;13.712;2023-07-30T01:37:05;3.17;;;2.13;;
22814;SDS011;11574;51.058;13.712;2023-07-30T01:42:11;4.97;;;2.40;;
22814;SDS011;11574;51.058;13.712;2023-07-30T01:47:13;6.37;;;2.60;;
22814;SDS011;11574;51.058;13.712;2023-07-30T01:52:17;8.40;;;2.50;;
22814;SDS011;11574;51.058;13.712;2023-07-30T01:57:19;9.10;;;2.47;;
22814;SDS011;11574;51.058;13.712;2023-07-30T02:02:22;6.60;;;2.13;;
22814;SDS011;11574;51.058;13.712;2023-07-30T02:07:26;4.90;;;2.47;;
22814;SDS011;11574;51.058;13.712;2023-07-30T02:12:28;7.43;;;2.20;;
22814;SDS011;11574;51.058;13.712;2023-07-30T02:17:30;9.40;;;2.40;;
22814;SDS011;11574;51.058;13.712;2023-07-30T02:22:34;5.67;;;2.37;;
22814;SDS011;11574;51.058;13.712;2023-07-30T02:27:36;4.43;;;1.93;;
22814;SDS011;11574;51.058;13.712;2023-07-30T02:32:38;4.80;;;2.27;;
22814;SDS011;11574;51.058;13.712;2023-07-30T02:37:42;5.67;;;2.50;;
22814;SDS011;11574;51.058;13.712;2023-07-30T02:42:44;6.97;;;2.40;;
22814;SDS011;11574;51.058;13.712;2023-07-30T02:47:46;3.70;;;2.30;;
22814;SDS011;11574;51.058;13.712;2023-07-30T02:52:50;5.90;;;2.80;;
22814;SDS011;11574;51.058;13.712;2023-07-30T02:57:52;5.43;;;2.60;;
22814;SDS011;11574;51.058;13.712;2023-07-30T03:02:55;5.40;;;2.77;;
22814;SDS011;11574;51.058;13.712;2023-07-30T03:07:59;3.07;;;2.40;;
22814;SDS011;11574;51.058;13.712;2023-07-30T03:13:01;8.43;;;2.53;;
22814;SDS011;11574;51.058;13.712;2023-07-30T03:18:04;3.83;;;2.73;;
22814;SDS011;11574;51.058;13.712;2023-07-30T03:23:07;7.20;;;2.70;;
22814;SDS011;11574;51.058;13.712;2023-07-30T03:28:09;5.77;;;3.13;;
22814;SDS011;11574;51.058;13.712;2023-07-30T03:33:12;5.53;;;3.23;;
22814;SDS011;11574;51.058;13.712;2023-07-30T03:38:15;5.27;;;3.30;;
22814;SDS011;11574;51.058;13.712;2023-07-30T03:43:17;4.07;;;3.07;;
22814;SDS011;11574;51.058;13.712;2023-07-30T03:48:20;6.27;;;3.13;;
22814;SDS011;11574;51.058;13.712;2023-07-30T03:53:23;3.37;;;2.90;;
22814;SDS011;11574;51.058;13.712;2023-07-30T03:58:26;5.53;;;3.43;;
22814;SDS011;11574;51.058;13.712;2023-07-30T04:03:28;5.67;;;3.33;;
22814;SDS011;11574;51.058;13.712;2023-07-30T04:08:32;5.63;;;2.77;;
22814;SDS011;11574;51.058;13.712;2023-07-30T04:13:35;7.10;;;3.53;;
22814;SDS011;11574;51.058;13.712;2023-07-30T04:18:37;10.57;;;3.13;;
22814;SDS011;11574;51.058;13.712;2023-07-30T04:23:41;5.23;;;3.20;;
22814;SDS011;11574;51.058;13.712;2023-07-30T04:28:43;4.27;;;3.27;;
22814;SDS011;11574;51.058;13.712;2023-07-30T04:33:45;3.97;;;3.50;;
22814;SDS011;11574;51.058;13.712;2023-07-30T04:38:49;7.20;;;3.13;;
22814;SDS011;11574;51.058;13.712;2023-07-30T04:43:51;6.90;;;3.50;;
22814;SDS011;11574;51.058;13.712;2023-07-30T04:48:53;4.90;;;3.30;;
22814;SDS011;11574;51.058;13.712;2023-07-30T04:53:57;3.30;;;2.80;;
22814;SDS011;11574;51.058;13.712;2023-07-30T04:59:00;4.50;;;2.80;;
22814;SDS011;11574;51.058;13.712;2023-07-30T05:04:03;3.90;;;2.40;;
22814;SDS011;11574;51.058;13.712;2023-07-30T05:09:06;4.27;;;2.23;;
22814;SDS011;11574;51.058;13.712;2023-07-30T05:14:09;2.90;;;2.03;;
22814;SDS011;11574;51.058;13.712;2023-07-30T05:19:11;2.37;;;2.00;;
22814;SDS011;11574;51.058;13.712;2023-07-30T05:24:15;3.33;;;2.20;;
22814;SDS011;11574;51.058;13.712;2023-07-30T05:29:17;4.63;;;2.40;;
22814;SDS011;11574;51.058;13.712;2023-07-30T05:34:21;5.60;;;2.53;;
22814;SDS011;11574;51.058;13.712;2023-07-30T05:39:24;2.60;;;2.03;;
22814;SDS011;11574;51.058;13.712;2023-07-30T05:44:27;6.37;;;2.80;;
22814;SDS011;11574;51.058;13.712;2023-07-30T05:49:29;5.90;;;2.30;;
22814;SDS011;11574;51.058;13.712;2023-07-30T05:54:33;4.83;;;2.90;;
22814;SDS011;11574;51.058;13.712;2023-07-30T05:59:35;5.30;;;2.90;;
22814;SDS011;11574;51.058;13.712;2023-07-30T06:04:38;4.30;;;2.83;;
22814;SDS011;11574;51.058;13.712;2023-07-30T06:09:41;3.97;;;2.70;;
22814;SDS011;11574;51.058;13.712;2023-07-30T06:14:45;4.93;;;2.70;;
22814;SDS011;11574;51.058;13.712;2023-07-30T06:19:47;2.87;;;2.37;;
22814;SDS011;11574;51.058;13.712;2023-07-30T06:24:51;3.53;;;2.57;;
22814;SDS011;11574;51.058;13.712;2023-07-30T06:29:53;7.17;;;2.60;;
22814;SDS011;11574;51.058;13.712;2023-07-30T06:34:57;7.37;;;2.50;;
22814;SDS011;11574;51.058;13.712;2023-07-30T06:40:01;5.87;;;2.40;;
22814;SDS011;11574;51.058;13.712;2023-07-30T06:45:06;7.03;;;2.53;;
22814;SDS011;11574;51.058;13.712;2023-07-30T06:50:09;6.87;;;2.53;;
22814;SDS011;11574;51.058;13.712;2023-07-30T06:55:12;6.93;;;2.90;;
22814;SDS011;11574;51.058;13.712;2023-07-30T07:00:15;4.83;;;2.30;;
22814;SDS011;11574;51.058;13.712;2023-07-30T07:05:21;3.70;;;2.10;;
22814;SDS011;11574;51.058;13.712;2023-07-30T07:10:25;3.25;;;2.45;;
22814;SDS011;11574;51.058;13.712;2023-07-30T07:15:27;3.47;;;2.30;;
22814;SDS011;11574;51.058;13.712;2023-07-30T07:20:33;6.03;;;1.90;;
22814;SDS011;11574;51.058;13.712;2023-07-30T07:25:37;5.32;;;2.10;;
22814;SDS011;11574;51.058;13.712;2023-07-30T07:30:39;2.58;;;1.75;;
22814;SDS011;11574;51.058;13.712;2023-07-30T07:35:43;6.07;;;2.17;;
22814;SDS011;11574;51.058;13.712;2023-07-30T07:40:47;4.15;;;1.83;;
22814;SDS011;11574;51.058;13.712;2023-07-30T07:45:49;2.22;;;1.80;;
22814;SDS011;11574;51.058;13.712;2023-07-30T07:50:52;3.10;;;2.10;;
22814;SDS011;11574;51.058;13.712;2023-07-30T07:55:55;3.17;;;1.50;;
22814;SDS011;11574;51.058;13.712;2023-07-30T08:00:58;7.45;;;4.60;;
22814;SDS011;11574;51.058;13.712;2023-07-30T08:06:03;4.70;;;1.90;;
22814;SDS011;11574;51.058;13.712;2023-07-30T08:11:08;4.82;;;1.70;;
22814;SDS011;11574;51.058;13.712;2023-07-30T08:16:11;6.30;;;1.60;;
22814;SDS011;11574;51.058;13.712;2023-07-30T08:21:14;2.45;;;1.60;;
22814;SDS011;11574;51.058;13.712;2023-07-30T08:26:19;2.78;;;1.50;;
22814;SDS011;11574;51.058;13.712;2023-07-30T08:31:21;2.13;;;1.48;;
22814;SDS011;11574;51.058;13.712;2023-07-30T08:36:24;1.45;;;1.33;;
22814;SDS011;11574;51.058;13.712;2023-07-30T08:41:27;3.08;;;1.48;;
22814;SDS011;11574;51.058;13.712;2023-07-30T08:46:30;5.65;;;2.00;;
22814;SDS011;11574;51.058;13.712;2023-07-30T08:51:32;5.55;;;1.48;;
22814;SDS011;11574;51.058;13.712;2023-07-30T08:56:41;2.22;;;1.77;;
22814;SDS011;11574;51.058;13.712;2023-07-30T09:01:43;1.92;;;1.27;;
22814;SDS011;11574;51.058;13.712;2023-07-30T09:06:47;2.25;;;1.60;;
22814;SDS011;11574;51.058;13.712;2023-07-30T09:11:52;3.78;;;1.42;;
22814;SDS011;11574;51.058;13.712;2023-07-30T09:16:56;4.38;;;1.38;;
22814;SDS011;11574;51.058;13.712;2023-07-30T09:21:58;3.65;;;1.30;;
22814;SDS011;11574;51.058;13.712;2023-07-30T09:27:03;8.30;;;1.63;;
22814;SDS011;11574;51.058;13.712;2023-07-30T09:32:07;1.52;;;1.20;;
22814;SDS011;11574;51.058;13.712;2023-07-30T09:37:09;1.92;;;1.52;;
22814;SDS011;11574;51.058;13.712;2023-07-30T09:42:13;4.10;;;1.85;;
22814;SDS011;11574;51.058;13.712;2023-07-30T09:47:16;1.83;;;1.60;;
22814;SDS011;11574;51.058;13.712;2023-07-30T09:52:18;2.80;;;1.65;;
22814;SDS011;11574;51.058;13.712;2023-07-30T09:57:22;2.20;;;1.70;;
22814;SDS011;11574;51.058;13.712;2023-07-30T10:02:24;5.30;;;1.70;;
22814;SDS011;11574;51.058;13.712;2023-07-30T10:07:28;2.25;;;1.98;;
22814;SDS011;11574;51.058;13.712;2023-07-30T10:12:36;3.88;;;1.70;;
22814;SDS011;11574;51.058;13.712;2023-07-30T10:17:40;2.15;;;1.60;;
22814;SDS011;11574;51.058;13.712;2023-07-30T10:22:42;1.80;;;1.50;;
22814;SDS011;11574;51.058;13.712;2023-07-30T10:27:49;2.70;;;1.65;;
22814;SDS011;11574;51.058;13.712;2023-07-30T10:32:58;2.95;;;1.83;;
22814;SDS011;11574;51.058;13.712;2023-07-30T10:38:00;2.42;;;1.50;;
22814;SDS011;11574;51.058;13.712;2023-07-30T10:43:03;3.53;;;2.00;;
22814;SDS011;11574;51.058;13.712;2023-07-30T10:48:15;4.32;;;1.50;;
22814;SDS011;11574;51.058;13.712;2023-07-30T10:53:17;1.70;;;1.48;;
22814;SDS011;11574;51.058;13.712;2023-07-30T10:58:21;4.75;;;1.60;;
22814;SDS011;11574;51.058;13.712;2023-07-30T11:03:26;2.90;;;1.60;;
22814;SDS011;11574;51.058;13.712;2023-07-30T11:08:32;7.40;;;1.60;;
22814;SDS011;11574;51.058;13.712;2023-07-30T11:13:38;1.95;;;1.30;;
22814;SDS011;11574;51.058;13.712;2023-07-30T11:18:41;1.83;;;1.48;;
22814;SDS011;11574;51.058;13.712;2023-07-30T11:23:44;1.40;;;1.20;;
22814;SDS011;11574;51.058;13.712;2023-07-30T11:28:48;1.52;;;1.17;;
22814;SDS011;11574;51.058;13.712;2023-07-30T11:33:50;2.90;;;1.10;;
22814;SDS011;11574;51.058;13.712;2023-07-30T11:38:53;2.95;;;1.00;;
22814;SDS011;11574;51.058;13.712;2023-07-30T11:43:56;2.92;;;1.10;;
22814;SDS011;11574;51.058;13.712;2023-07-30T11:49:10;1.77;;;1.10;;
22814;SDS011;11574;51.058;13.712;2023-07-30T11:54:18;1.38;;;0.93;;
22814;SDS011;11574;51.058;13.712;2023-07-30T11:59:22;2.85;;;1.20;;
22814;SDS011;11574;51.058;13.712;2023-07-30T12:04:24;1.60;;;0.90;;
22814;SDS011;11574;51.058;13.712;2023-07-30T12:09:26;3.40;;;1.20;;
22814;SDS011;11574;51.058;13.712;2023-07-30T12:14:43;2.38;;;0.70;;
22814;SDS011;11574;51.058;13.712;2023-07-30T12:19:46;1.60;;;0.73;;
22814;SDS011;11574;51.058;13.712;2023-07-30T12:24:48;1.00;;;0.80;;
22814;SDS011;11574;51.058;13.712;2023-07-30T12:29:52;0.70;;;0.70;;
22814;SDS011;11574;51.058;13.712;2023-07-30T12:34:54;0.73;;;0.73;;
22814;SDS011;11574;51.058;13.712;2023-07-30T12:39:56;0.88;;;0.80;;
22814;SDS011;11574;51.058;13.712;2023-07-30T12:45:00;1.00;;;0.90;;
22814;SDS011;11574;51.058;13.712;2023-07-30T12:50:02;2.58;;;1.35;;
22814;SDS011;11574;51.058;13.712;2023-07-30T12:55:05;6.32;;;1.27;;
22814;SDS011;11574;51.058;13.712;2023-07-30T13:00:09;4.07;;;2.15;;
22814;SDS011;11574;51.058;13.712;2023-07-30T13:05:11;3.42;;;2.50;;
22814;SDS011;11574;51.058;13.712;2023-07-30T13:10:15;1.40;;;0.90;;
22814;SDS011;11574;51.058;13.712;2023-07-30T13:15:19;1.88;;;0.95;;
22814;SDS011;11574;51.058;13.712;2023-07-30T13:20:21;1.73;;;1.10;;
22814;SDS011;11574;51.058;13.712;2023-07-30T13:25:24;1.25;;;0.90;;
22814;SDS011;11574;51.058;13.712;2023-07-30T13:30:27;2.28;;;1.00;;
22814;SDS011;11574;51.058;13.712;2023-07-30T13:35:30;1.30;;;1.00;;
22814;SDS011;11574;51.058;13.712;2023-07-30T13:40:32;1.88;;;0.88;;
22814;SDS011;11574;51.058;13.712;2023-07-30T13:45:35;1.00;;;0.90;;
22814;SDS011;11574;51.058;13.712;2023-07-30T13:50:38;1.52;;;1.05;;
22814;SDS011;11574;51.058;13.712;2023-07-30T13:55:40;1.55;;;0.80;;
22814;SDS011;11574;51.058;13.712;2023-07-30T14:00:43;1.73;;;1.30;;
22814;SDS011;11574;51.058;13.712;2023-07-30T14:05:46;1.67;;;0.95;;
22814;SDS011;11574;51.058;13.712;2023-07-30T14:10:48;1.60;;;0.90;;
22814;SDS011;11574;51.058;13.712;2023-07-30T14:15:52;3.20;;;2.10;;
22814;SDS011;11574;51.058;13.712;2023-07-30T14:20:54;1.98;;;1.10;;
22814;SDS011;11574;51.058;13.712;2023-07-30T14:25:56;2.08;;;1.10;;
22814;SDS011;11574;51.058;13.712;2023-07-30T14:31:00;1.08;;;0.90;;
22814;SDS011;11574;51.058;13.712;2023-07-30T14:36:03;2.97;;;0.93;;
22814;SDS011;11574;51.058;13.712;2023-07-30T14:41:05;1.17;;;1.00;;
22814;SDS011;11574;51.058;13.712;2023-07-30T14:46:10;2.00;;;0.98;;
22814;SDS011;11574;51.058;13.712;2023-07-30T14:51:14;3.58;;;1.58;;
22814;SDS011;11574;51.058;13.712;2023-07-30T14:56:18;2.95;;;1.10;;
22814;SDS011;11574;51.058;13.712;2023-07-30T15:01:27;13.18;;;1.30;;
22814;SDS011;11574;51.058;13.712;2023-07-30T15:06:29;4.45;;;1.80;;
22814;SDS011;11574;51.058;13.712;2023-07-30T15:11:31;3.20;;;1.20;;
22814;SDS011;11574;51.058;13.712;2023-07-30T15:16:35;3.08;;;1.63;;
22814;SDS011;11574;51.058;13.712;2023-07-30T15:21:37;5.33;;;1.57;;
22814;SDS011;11574;51.058;13.712;2023-07-30T15:26:39;4.70;;;1.70;;
22814;SDS011;11574;51.058;13.712;2023-07-30T15:31:43;2.10;;;1.40;;
22814;SDS011;11574;51.058;13.712;2023-07-30T15:36:45;6.10;;;1.40;;
22814;SDS011;11574;51.058;13.712;2023-07-30T15:41:47;3.60;;;1.53;;
22814;SDS011;11574;51.058;13.712;2023-07-30T15:46:51;3.63;;;1.50;;
22814;SDS011;11574;51.058;13.712;2023-07-30T15:51:53;8.27;;;2.10;;
22814;SDS011;11574;51.058;13.712;2023-07-30T15:56:56;4.63;;;1.60;;
22814;SDS011;11574;51.058;13.712;2023-07-30T16:01:59;5.13;;;2.27;;
22814;SDS011;11574;51.058;13.712;2023-07-30T16:07:02;3.03;;;1.93;;
22814;SDS011;11574;51.058;13.712;2023-07-30T16:12:05;3.03;;;1.90;;
22814;SDS011;11574;51.058;13.712;2023-07-30T16:17:09;3.50;;;1.90;;
22814;SDS011;11574;51.058;13.712;2023-07-30T16:22:13;5.10;;;3.03;;
22814;SDS011;11574;51.058;13.712;2023-07-30T16:27:18;4.77;;;2.87;;
22814;SDS011;11574;51.058;13.712;2023-07-30T16:32:25;9.63;;;5.67;;
22814;SDS011;11574;51.058;13.712;2023-07-30T16:37:28;3.93;;;2.07;;
22814;SDS011;11574;51.058;13.712;2023-07-30T16:42:31;3.03;;;2.20;;
22814;SDS011;11574;51.058;13.712;2023-07-30T16:47:36;6.43;;;2.23;;
22814;SDS011;11574;51.058;13.712;2023-07-30T16:52:41;4.93;;;2.30;;
22814;SDS011;11574;51.058;13.712;2023-07-30T16:57:43;3.87;;;2.10;;
22814;SDS011;11574;51.058;13.712;2023-07-30T17:02:47;5.20;;;1.90;;
22814;SDS011;11574;51.058;13.712;2023-07-30T17:07:49;4.73;;;1.87;;
22814;SDS011;11574;51.058;13.712;2023-07-30T17:12:52;3.13;;;1.40;;
22814;SDS011;11574;51.058;13.712;2023-07-30T17:17:56;4.53;;;1.60;;
22814;SDS011;11574;51.058;13.712;2023-07-30T17:22:59;3.07;;;1.03;;
22814;SDS011;11574;51.058;13.712;2023-07-30T17:28:01;1.67;;;1.23;;
22814;SDS011;11574;51.058;13.712;2023-07-30T17:33:07;1.70;;;1.00;;
22814;SDS011;11574;51.058;13.712;2023-07-30T17:38:19;1.90;;;1.37;;
22814;SDS011;11574;51.058;13.712;2023-07-30T17:43:22;2.90;;;1.50;;
22814;SDS011;11574;51.058;13.712;2023-07-30T17:48:26;1.97;;;1.20;;
22814;SDS011;11574;51.058;13.712;2023-07-30T17:53:29;6.73;;;1.60;;
22814;SDS011;11574;51.058;13.712;2023-07-30T17:58:34;3.07;;;1.83;;
22814;SDS011;11574;51.058;13.712;2023-07-30T18:03:43;3.20;;;1.70;;
22814;SDS011;11574;51.058;13.712;2023-07-30T18:08:45;2.80;;;1.60;;
22814;SDS011;11574;51.058;13.712;2023-07-30T18:13:47;2.30;;;1.50;;
22814;SDS011;11574;51.058;13.712;2023-07-30T18:18:52;3.40;;;1.47;;
22814;SDS011;11574;51.058;13.712;2023-07-30T18:23:54;3.70;;;1.47;;
22814;SDS011;11574;51.058;13.712;2023-07-30T18:28:57;2.60;;;1.33;;
22814;SDS011;11574;51.058;13.712;2023-07-30T18:34:03;2.87;;;1.47;;
22814;SDS011;11574;51.058;13.712;2023-07-30T18:39:08;4.60;;;2.10;;
22814;SDS011;11574;51.058;13.712;2023-07-30T18:44:13;3.57;;;1.57;;
22814;SDS011;11574;51.058;13.712;2023-07-30T18:49:16;4.40;;;2.13;;
22814;SDS011;11574;51.058;13.712;2023-07-30T18:54:19;3.20;;;1.50;;
22814;SDS011;11574;51.058;13.712;2023-07-30T18:59:23;4.10;;;2.80;;
22814;SDS011;11574;51.058;13.712;2023-07-30T19:04:26;4.03;;;2.00;;
22814;SDS011;11574;51.058;13.712;2023-07-30T19:09:29;3.60;;;2.53;;
22814;SDS011;11574;51.058;13.712;2023-07-30T19:14:32;5.87;;;1.60;;
22814;SDS011;11574;51.058;13.712;2023-07-30T19:19:36;4.10;;;2.97;;
22814;SDS011;11574;51.058;13.712;2023-07-30T19:24:39;3.10;;;1.87;;
22814;SDS011;11574;51.058;13.712;2023-07-30T19:29:41;7.73;;;2.90;;
22814;SDS011;11574;51.058;13.712;2023-07-30T19:34:45;3.33;;;2.13;;
22814;SDS011;11574;51.058;13.712;2023-07-30T19:39:47;11.80;;;2.30;;
22814;SDS011;11574;51.058;13.712;2023-07-30T19:44:50;7.50;;;2.40;;
22814;SDS011;11574;51.058;13.712;2023-07-30T19:49:55;3.67;;;1.90;;
22814;SDS011;11574;51.058;13.712;2023-07-30T19:54:59;5.13;;;2.70;;
22814;SDS011;11574;51.058;13.712;2023-07-30T20:00:01;5.53;;;3.23;;
22814;SDS011;11574;51.058;13.712;2023-07-30T20:05:07;9.80;;;3.40;;
22814;SDS011;11574;51.058;13.712;2023-07-30T20:10:10;5.43;;;2.90;;
22814;SDS011;11574;51.058;13.712;2023-07-30T20:15:12;8.63;;;3.43;;
22814;SDS011;11574;51.058;13.712;2023-07-30T20:20:16;7.60;;;2.50;;
22814;SDS011;11574;51.058;13.712;2023-07-30T20:25:19;5.90;;;2.53;;
22814;SDS011;11574;51.058;13.712;2023-07-30T20:30:21;3.47;;;1.83;;
22814;SDS011;11574;51.058;13.712;2023-07-30T20:35:25;4.47;;;2.90;;
22814;SDS011;11574;51.058;13.712;2023-07-30T20:40:27;4.37;;;2.20;;
22814;SDS011;11574;51.058;13.712;2023-07-30T20:45:30;4.73;;;2.20;;
22814;SDS011;11574;51.058;13.712;2023-07-30T20:50:33;4.83;;;2.43;;
22814;SDS011;11574;51.058;13.712;2023-07-30T20:55:36;5.90;;;2.67;;
22814;SDS011;11574;51.058;13.712;2023-07-30T21:00:38;4.63;;;2.60;;
22814;SDS011;11574;51.058;13.712;2023-07-30T21:05:41;5.17;;;2.83;;
22814;SDS011;11574;51.058;13.712;2023-07-30T21:10:44;7.20;;;2.60;;
22814;SDS011;11574;51.058;13.712;2023-07-30T21:15:46;7.23;;;3.27;;
22814;SDS011;11574;51.058;13.712;2023-07-30T21:20:50;6.87;;;2.67;;
22814;SDS011;11574;51.058;13.712;2023-07-30T21:25:52;6.60;;;2.77;;
22814;SDS011;11574;51.058;13.712;2023-07-30T21:30:59;4.87;;;2.57;;
22814;SDS011;11574;51.058;13.712;2023-07-30T21:36:03;6.57;;;2.83;;
22814;SDS011;11574;51.058;13.712;2023-07-30T21:41:06;5.60;;;2.30;;
22814;SDS011;11574;51.058;13.712;2023-07-30T21:46:08;8.43;;;2.27;;
22814;SDS011;11574;51.058;13.712;2023-07-30T21:51:12;6.43;;;2.00;;
22814;SDS011;11574;51.058;13.712;2023-07-30T21:56:14;7.07;;;1.70;;
22814;SDS011;11574;51.058;13.712;2023-07-30T22:01:17;5.10;;;1.70;;
22814;SDS011;11574;51.058;13.712;2023-07-30T22:06:20;7.13;;;1.70;;
22814;SDS011;11574;51.058;13.712;2023-07-30T22:11:23;5.23;;;1.70;;
22814;SDS011;11574;51.058;13.712;2023-07-30T22:16:26;7.57;;;1.53;;
22814;SDS011;11574;51.058;13.712;2023-07-30T22:21:30;4.17;;;1.40;;
22814;SDS011;11574;51.058;13.712;2023-07-30T22:26:32;3.73;;;1.40;;
22814;SDS011;11574;51.058;13.712;2023-07-30T22:31:34;5.60;;;1.30;;
22814;SDS011;11574;51.058;13.712;2023-07-30T22:36:39;4.33;;;1.30;;
22814;SDS011;11574;51.058;13.712;2023-07-30T22:41:42;4.13;;;1.47;;
22814;SDS011;11574;51.058;13.712;2023-07-30T22:46:44;8.43;;;1.50;;
22814;SDS011;11574;51.058;13.712;2023-07-30T22:51:47;3.77;;;1.40;;
22814;SDS011;11574;51.058;13.712;2023-07-30T22:56:50;4.97;;;1.37;;
22814;SDS011;11574;51.058;13.712;2023-07-30T23:01:52;2.53;;;1.23;;
22814;SDS011;11574;51.058;13.712;2023-07-30T23:06:55;4.87;;;1.70;;
22814;SDS011;11574;51.058;13.712;2023-07-30T23:11:58;4.03;;;1.57;;
22814;SDS011;11574;51.058;13.712;2023-07-30T23:17:00;3.87;;;1.53;;
22814;SDS011;11574;51.058;13.712;2023-07-30T23:22:04;7.17;;;1.57;;
22814;SDS011;11574;51.058;13.712;2023-07-30T23:27:06;5.60;;;1.60;;
22814;SDS011;11574;51.058;13.712;2023-07-30T23:32:08;8.03;;;1.57;;
22814;SDS011;11574;51.058;13.712;2023-07-30T23:37:12;4.10;;;1.30;;
22814;SDS011;11574;51.058;13.712;2023-07-30T23:42:14;5.10;;;1.47;;
22814;SDS011;11574;51.058;13.712;2023-07-30T23:47:16;3.60;;;1.63;;
22814;SDS011;11574;51.058;13.712;2023-07-30T23:52:24;9.23;;;2.57;;
22814;SDS011;11574;51.058;13.712;2023-07-30T23:57:26;3.70;;;1.47;;
